首页
METAR-TAF:

METAR-TAF

机场 :

阿讷西, 法国

纬度: 45-55-45N, 经度: 006-05-56E, 海拔: 463米

当前天气观测

该预报发布于15分钟前的20:00 UTC
风速2节,风向多变
温度 11°C
湿度 62%
气压 1013 hPa
能见度10公里或以上
1500米以下无云,无积雨云

METAR: LFLP 102000Z AUTO VRB02KT CAVOK 11/04 Q1013

时间: 22:15 (20:15 UTC)

预报

该预报发布于6小时和15分钟前的14:00 UTC
预报有效从10日的 15点(UTC)到 11日的 15点(UTC)
风速6节,风向西南
能见度10公里或以上
多云层高于7000英尺
几率 40% :
短暂存在
从 11日的 12点(UTC)到 11日的 15点(UTC)
多云层高于7000英尺, 积雨云.
小阵雨

TAF: LFLP 101400Z 1015/1115 22006KT 9999 BKN070 PROB40 TEMPO 1112/1115 -SHRA BKN070CB

超过4000个机场的气象观测和天气预报(METAR&TAF报告)。

可查询的气象台以黄色和红色小点在地图上表示。

将鼠标移到小点上方,可查看气象台名称。

然后点击查看天气观测和预报。

如需切换地图:点击带黑十字的绿色按钮放大地图;点击带横线的绿色按钮缩小地图;或者点击绿色箭头查看邻近地区的地图。


METAR-TAF: